Time;durP1;ratioP1;P1;durP2;ratioP2;P2;SDS_P1;SDS_P2;PMS_P1;PMS_P2;Temp;Humidity;BMP_temperature;BMP_pressure;BME280_temperature;BME280_humidity;BME280_pressure;Samples;Min_cycle;Max_cycle;Signal;HPM_P1;HPM_P2
2021/06/29 00:01:40;;;;;;;0.95;0.85;;;;;;;;;;5119934;28;20063;-68
2021/06/29 00:04:06;;;;;;;1.30;1.20;;;;;;;;;;5121201;28;20154;-68
2021/06/29 00:06:32;;;;;;;0.88;0.88;;;;;;;;;;5118025;28;20480;-68
2021/06/29 00:08:58;;;;;;;1.23;0.90;;;;;;;;;;5125285;28;20075;-68
2021/06/29 00:11:24;;;;;;;1.10;1.00;;;;;;;;;;5117573;28;20058;-68
2021/06/29 00:13:50;;;;;;;1.45;1.10;;;;;;;;;;5131009;28;20093;-68
2021/06/29 00:16:16;;;;;;;1.30;1.15;;;;;;;;;;5126505;28;20137;-68
2021/06/29 00:18:42;;;;;;;0.60;0.60;;;;;;;;;;5123445;28;20463;-68
2021/06/29 00:21:09;;;;;;;1.35;1.10;;;;;;;;;;5120171;28;20413;-68
2021/06/29 00:23:38;;;;;;;0.65;0.65;;;;;;;;;;5114214;28;20087;-68
2021/06/29 00:26:05;;;;;;;1.48;1.38;;;;;;;;;;5119277;28;20083;-68
2021/06/29 00:28:31;;;;;;;0.98;0.90;;;;;;;;;;5121381;28;20052;-68
2021/06/29 00:30:57;;;;;;;1.42;1.08;;;;;;;;;;5121859;28;20472;-68
2021/06/29 00:33:23;;;;;;;0.95;0.95;;;;;;;;;;5116478;28;20914;-68
2021/06/29 00:35:49;;;;;;;1.50;1.38;;;;;;;;;;5123474;28;20058;-68
2021/06/29 00:38:15;;;;;;;2.05;1.17;;;;;;;;;;5115879;28;20482;-68
2021/06/29 00:40:41;;;;;;;0.93;0.93;;;;;;;;;;5113377;28;20047;-68
2021/06/29 00:43:07;;;;;;;0.57;0.55;;;;;;;;;;5123227;28;20039;-68
2021/06/29 00:45:34;;;;;;;1.58;1.05;;;;;;;;;;5123032;28;20048;-68
2021/06/29 00:48:00;;;;;;;0.93;0.80;;;;;;;;;;5126636;28;20497;-68
2021/06/29 00:50:26;;;;;;;1.10;1.00;;;;;;;;;;5126131;28;20051;-68
2021/06/29 00:52:52;;;;;;;1.00;1.00;;;;;;;;;;5116135;28;20586;-68
2021/06/29 00:55:18;;;;;;;0.73;0.63;;;;;;;;;;5122459;28;20417;-68
2021/06/29 00:57:50;;;;;;;1.48;1.27;;;;;;;;;;5122907;28;20505;-68
2021/06/29 01:00:17;;;;;;;0.88;0.73;;;;;;;;;;5115032;28;20054;-68
2021/06/29 01:02:43;;;;;;;1.10;0.98;;;;;;;;;;5120839;28;20443;-68
2021/06/29 01:05:09;;;;;;;0.60;0.60;;;;;;;;;;5112861;28;20058;-68
2021/06/29 01:07:36;;;;;;;1.88;0.90;;;;;;;;;;5117724;28;20066;-68
2021/06/29 01:10:09;;;;;;;2.42;1.60;;;;;;;;;;5117690;28;20043;-68
2021/06/29 01:12:35;;;;;;;2.00;1.48;;;;;;;;;;5122983;28;20100;-68
2021/06/29 01:15:02;;;;;;;1.02;0.93;;;;;;;;;;5126813;28;20466;-68
2021/06/29 01:17:28;;;;;;;0.80;0.68;;;;;;;;;;5110427;28;20759;-68
2021/06/29 01:19:55;;;;;;;0.93;0.93;;;;;;;;;;5117063;28;20039;-68
2021/06/29 01:22:23;;;;;;;1.20;1.05;;;;;;;;;;5127998;28;20099;-68
2021/06/29 01:24:55;;;;;;;1.00;0.90;;;;;;;;;;5122543;28;20131;-68
2021/06/29 01:32:27;;;;;;;3.47;1.40;;;;;;;;;;5121254;28;20520;-68
2021/06/29 01:34:53;;;;;;;0.47;0.47;;;;;;;;;;5111732;28;20083;-68
2021/06/29 01:37:21;;;;;;;1.48;0.93;;;;;;;;;;5115587;28;20066;-68
2021/06/29 01:40:01;;;;;;;0.80;0.80;;;;;;;;;;5116149;28;20057;-68
2021/06/29 01:42:27;;;;;;;1.65;1.10;;;;;;;;;;5120647;28;20570;-68
2021/06/29 01:44:53;;;;;;;1.70;1.13;;;;;;;;;;5119160;28;20057;-68
2021/06/29 01:47:36;;;;;;;0.80;0.70;;;;;;;;;;5120285;28;20055;-68
2021/06/29 01:50:15;;;;;;;0.93;0.93;;;;;;;;;;5125015;28;20513;-68
2021/06/29 01:52:41;;;;;;;0.93;0.93;;;;;;;;;;5125402;27;20080;-68
2021/06/29 01:55:08;;;;;;;1.52;0.90;;;;;;;;;;5117727;28;20043;-68
2021/06/29 01:57:36;;;;;;;0.95;0.85;;;;;;;;;;5123032;28;20095;-68
2021/06/29 02:00:06;;;;;;;1.70;1.45;;;;;;;;;;5129274;28;20135;-68
2021/06/29 02:02:32;;;;;;;0.88;0.88;;;;;;;;;;5110456;28;20059;-68
2021/06/29 02:04:58;;;;;;;1.15;1.05;;;;;;;;;;5108604;28;20581;-68
2021/06/29 02:07:24;;;;;;;1.00;1.00;;;;;;;;;;5115360;28;20101;-68
2021/06/29 02:09:50;;;;;;;1.02;0.98;;;;;;;;;;5121869;28;20043;-68
2021/06/29 02:12:17;;;;;;;0.93;0.77;;;;;;;;;;5117400;28;20104;-68
2021/06/29 02:14:43;;;;;;;1.17;1.10;;;;;;;;;;5123068;28;20143;-67
2021/06/29 02:17:09;;;;;;;1.30;1.20;;;;;;;;;;5108015;28;20093;-68
2021/06/29 02:19:35;;;;;;;1.00;0.82;;;;;;;;;;5108416;28;20144;-67
2021/06/29 02:22:01;;;;;;;0.70;0.70;;;;;;;;;;5120728;28;20046;-68
2021/06/29 02:24:27;;;;;;;1.27;1.00;;;;;;;;;;5124740;28;20057;-68
2021/06/29 02:26:53;;;;;;;1.60;1.35;;;;;;;;;;5117482;28;20051;-68
2021/06/29 02:29:20;;;;;;;1.30;1.20;;;;;;;;;;5120290;28;20571;-68
2021/06/29 02:31:46;;;;;;;1.20;0.93;;;;;;;;;;5123033;28;20051;-68
2021/06/29 02:34:12;;;;;;;1.40;1.13;;;;;;;;;;5115336;28;20595;-68
2021/06/29 02:36:38;;;;;;;1.00;1.00;;;;;;;;;;5125249;28;20139;-68
2021/06/29 02:39:04;;;;;;;0.52;0.43;;;;;;;;;;5125047;28;20059;-68
2021/06/29 02:41:30;;;;;;;2.15;1.70;;;;;;;;;;5120967;28;20438;-68
2021/06/29 02:43:56;;;;;;;1.35;1.23;;;;;;;;;;5119944;28;20047;-68
2021/06/29 02:46:23;;;;;;;0.90;0.88;;;;;;;;;;5111152;28;20505;-68
2021/06/29 02:48:49;;;;;;;1.92;0.90;;;;;;;;;;5112213;28;20058;-67
2021/06/29 02:51:15;;;;;;;1.55;1.10;;;;;;;;;;5122521;28;20063;-68
2021/06/29 02:53:41;;;;;;;2.15;1.23;;;;;;;;;;5122856;28;20063;-68
2021/06/29 02:56:37;;;;;;;2.45;1.23;;;;;;;;;;5123015;28;20050;-68
2021/06/29 02:58:54;;;;;;;1.85;1.42;;;;;;;;;;5110432;28;20047;-68
2021/06/29 03:01:20;;;;;;;0.60;0.60;;;;;;;;;;5116169;28;20062;-68
2021/06/29 03:03:46;;;;;;;1.60;1.08;;;;;;;;;;5109043;28;20150;-68
2021/06/29 03:06:13;;;;;;;0.65;0.65;;;;;;;;;;5122915;28;20048;-68
2021/06/29 03:08:39;;;;;;;0.90;0.90;;;;;;;;;;5128578;28;20044;-68
2021/06/29 03:11:05;;;;;;;1.05;0.93;;;;;;;;;;5116979;28;20488;-68
2021/06/29 03:13:31;;;;;;;0.98;0.80;;;;;;;;;;5120779;28;20047;-68
2021/06/29 03:15:57;;;;;;;1.15;0.75;;;;;;;;;;5124812;28;20494;-68
2021/06/29 03:18:23;;;;;;;0.90;0.75;;;;;;;;;;5124356;28;20047;-68
2021/06/29 03:20:50;;;;;;;0.90;0.80;;;;;;;;;;5124382;28;20043;-68
2021/06/29 03:23:16;;;;;;;1.30;1.05;;;;;;;;;;5093592;28;20086;-68
2021/06/29 03:25:42;;;;;;;2.25;1.15;;;;;;;;;;5125402;28;20051;-67
2021/06/29 03:28:09;;;;;;;1.02;0.98;;;;;;;;;;5123167;28;20439;-68
2021/06/29 03:30:35;;;;;;;1.02;0.93;;;;;;;;;;5114718;28;20056;-68
2021/06/29 03:33:01;;;;;;;1.30;0.95;;;;;;;;;;5117836;28;20052;-68
2021/06/29 03:35:27;;;;;;;0.63;0.63;;;;;;;;;;5114316;28;20055;-68
2021/06/29 03:37:53;;;;;;;0.70;0.70;;;;;;;;;;5127595;28;20047;-68
2021/06/29 03:40:19;;;;;;;0.85;0.80;;;;;;;;;;5130360;28;20073;-68
2021/06/29 03:42:45;;;;;;;0.82;0.77;;;;;;;;;;5120408;28;20054;-67
2021/06/29 03:45:11;;;;;;;0.68;0.68;;;;;;;;;;5123047;28;20103;-68
2021/06/29 03:47:38;;;;;;;1.30;1.17;;;;;;;;;;5114093;28;20055;-68
2021/06/29 03:50:04;;;;;;;1.20;1.00;;;;;;;;;;5121732;28;20136;-68
2021/06/29 03:52:31;;;;;;;2.08;1.20;;;;;;;;;;5124429;28;20444;-68
2021/06/29 03:54:57;;;;;;;0.80;0.80;;;;;;;;;;5126286;28;20048;-68
2021/06/29 03:57:23;;;;;;;1.20;1.17;;;;;;;;;;5110213;28;20104;-68
2021/06/29 03:59:49;;;;;;;1.38;0.90;;;;;;;;;;5110751;28;20491;-67
2021/06/29 04:02:15;;;;;;;1.20;0.85;;;;;;;;;;5113686;28;20046;-68
2021/06/29 04:04:42;;;;;;;0.70;0.70;;;;;;;;;;5114175;28;20066;-68
2021/06/29 04:07:09;;;;;;;1.08;0.95;;;;;;;;;;5113749;28;20405;-68
2021/06/29 04:09:37;;;;;;;0.95;0.70;;;;;;;;;;5128358;28;20130;-70
2021/06/29 04:12:04;;;;;;;0.82;0.82;;;;;;;;;;5122192;28;20051;-68
2021/06/29 04:14:30;;;;;;;1.58;1.10;;;;;;;;;;5120925;27;20066;-68
2021/06/29 04:16:56;;;;;;;1.48;1.05;;;;;;;;;;5114752;28;20051;-67
2021/06/29 04:19:22;;;;;;;2.05;1.13;;;;;;;;;;5117591;28;20076;-68
2021/06/29 04:21:48;;;;;;;0.80;0.80;;;;;;;;;;5117993;28;20066;-68
2021/06/29 04:24:14;;;;;;;1.27;0.90;;;;;;;;;;5121122;28;20051;-67
2021/06/29 04:26:40;;;;;;;1.85;1.20;;;;;;;;;;5121071;28;20047;-68
2021/06/29 04:29:07;;;;;;;0.60;0.60;;;;;;;;;;5118338;28;20035;-68
2021/06/29 04:31:33;;;;;;;1.02;1.00;;;;;;;;;;5126510;28;20043;-68
2021/06/29 04:33:59;;;;;;;0.57;0.55;;;;;;;;;;5114272;28;20054;-68
2021/06/29 04:36:25;;;;;;;1.23;1.10;;;;;;;;;;5113218;28;20054;-68
2021/06/29 04:38:51;;;;;;;0.70;0.70;;;;;;;;;;5124928;28;20516;-68
2021/06/29 04:41:17;;;;;;;1.65;1.20;;;;;;;;;;5109111;28;20493;-68
2021/06/29 04:43:45;;;;;;;2.03;0.80;;;;;;;;;;5117499;28;20069;-67
2021/06/29 04:46:11;;;;;;;1.02;1.02;;;;;;;;;;5117693;28;20070;-68
2021/06/29 04:48:39;;;;;;;1.02;0.93;;;;;;;;;;5123946;28;20051;-68
2021/06/29 04:51:06;;;;;;;0.82;0.82;;;;;;;;;;5115014;28;20077;-68
2021/06/29 04:53:33;;;;;;;0.90;0.90;;;;;;;;;;5115563;28;20090;-68
2021/06/29 04:55:59;;;;;;;0.80;0.80;;;;;;;;;;5115745;28;20051;-68
2021/06/29 04:58:25;;;;;;;1.63;1.33;;;;;;;;;;5121469;28;20108;-68
2021/06/29 05:00:51;;;;;;;1.08;0.75;;;;;;;;;;5122614;28;20553;-68
2021/06/29 05:03:18;;;;;;;0.88;0.80;;;;;;;;;;5125442;28;20051;-68
2021/06/29 05:05:44;;;;;;;1.65;1.30;;;;;;;;;;5119782;28;20139;-68
2021/06/29 05:08:13;;;;;;;0.95;0.95;;;;;;;;;;5114158;28;20051;-68
2021/06/29 05:10:40;;;;;;;1.35;1.20;;;;;;;;;;5122494;28;20417;-67
2021/06/29 05:13:06;;;;;;;1.38;0.82;;;;;;;;;;5112897;28;20421;-68
2021/06/29 05:15:32;;;;;;;1.17;1.00;;;;;;;;;;5113460;28;20051;-68
2021/06/29 05:17:58;;;;;;;6.53;1.88;;;;;;;;;;5119239;28;20534;-67
2021/06/29 05:20:24;;;;;;;1.05;0.90;;;;;;;;;;5113499;28;20043;-68
2021/06/29 05:22:51;;;;;;;0.90;0.70;;;;;;;;;;5124400;28;20044;-68
2021/06/29 05:25:17;;;;;;;1.13;0.82;;;;;;;;;;5117403;28;20058;-68
2021/06/29 05:27:43;;;;;;;0.93;0.93;;;;;;;;;;5125596;28;20402;-67
2021/06/29 05:30:10;;;;;;;1.30;0.93;;;;;;;;;;5125587;28;20078;-68
2021/06/29 05:32:36;;;;;;;1.70;1.13;;;;;;;;;;5121798;28;20039;-68
2021/06/29 05:35:03;;;;;;;1.05;0.95;;;;;;;;;;5118223;28;20062;-68
2021/06/29 05:37:29;;;;;;;1.20;1.15;;;;;;;;;;5121600;28;20055;-68
2021/06/29 05:39:55;;;;;;;1.10;0.95;;;;;;;;;;5103642;28;20074;-67
2021/06/29 05:42:22;;;;;;;0.95;0.80;;;;;;;;;;5120180;28;20509;-67
2021/06/29 05:44:48;;;;;;;1.35;1.25;;;;;;;;;;5127480;28;20046;-68
2021/06/29 05:47:20;;;;;;;1.20;0.80;;;;;;;;;;5120979;28;20063;-68
2021/06/29 05:49:46;;;;;;;5.25;1.42;;;;;;;;;;5125676;28;20108;-68
2021/06/29 05:52:12;;;;;;;2.83;1.10;;;;;;;;;;5116611;28;20134;-68
2021/06/29 05:54:39;;;;;;;1.17;1.08;;;;;;;;;;5112422;28;20052;-68
2021/06/29 05:57:05;;;;;;;1.92;1.00;;;;;;;;;;5113591;28;20047;-68
2021/06/29 05:59:31;;;;;;;1.33;1.23;;;;;;;;;;5115319;28;20058;-67
2021/06/29 06:01:58;;;;;;;3.33;2.00;;;;;;;;;;5115484;28;20040;-67
2021/06/29 06:04:24;;;;;;;5.35;1.95;;;;;;;;;;5095508;28;20044;-67
2021/06/29 06:06:50;;;;;;;4.70;2.28;;;;;;;;;;5116704;28;20046;-67
2021/06/29 06:09:17;;;;;;;2.60;1.95;;;;;;;;;;5113808;28;20138;-67
2021/06/29 06:11:43;;;;;;;4.68;1.73;;;;;;;;;;5115641;28;20050;-67
2021/06/29 06:14:09;;;;;;;2.30;1.70;;;;;;;;;;5120005;28;20042;-67
2021/06/29 06:16:35;;;;;;;1.60;1.50;;;;;;;;;;5120098;28;20405;-67
2021/06/29 06:19:01;;;;;;;3.10;1.58;;;;;;;;;;5115528;28;20058;-67
2021/06/29 06:21:27;;;;;;;1.50;1.40;;;;;;;;;;5112596;28;20039;-67
2021/06/29 06:23:53;;;;;;;3.83;2.00;;;;;;;;;;5121490;28;20075;-67
2021/06/29 06:26:20;;;;;;;3.13;1.88;;;;;;;;;;5106393;28;20076;-67
2021/06/29 06:28:46;;;;;;;3.55;1.92;;;;;;;;;;5117521;28;20511;-67
2021/06/29 06:31:12;;;;;;;4.88;1.98;;;;;;;;;;5109429;28;20066;-67
2021/06/29 06:33:38;;;;;;;2.22;1.70;;;;;;;;;;5109453;28;20050;-67
2021/06/29 06:36:04;;;;;;;1.63;1.42;;;;;;;;;;5108640;28;20414;-67
2021/06/29 06:38:30;;;;;;;7.07;3.38;;;;;;;;;;5106122;28;20120;-67
2021/06/29 06:40:56;;;;;;;3.63;2.75;;;;;;;;;;5110480;28;20055;-66
2021/06/29 06:43:22;;;;;;;3.30;2.88;;;;;;;;;;5112816;28;20051;-67
2021/06/29 06:45:49;;;;;;;4.10;1.95;;;;;;;;;;5113719;28;20047;-67
2021/06/29 06:48:15;;;;;;;2.78;1.98;;;;;;;;;;5098640;28;20056;-67
2021/06/29 06:50:41;;;;;;;3.75;1.88;;;;;;;;;;5111540;28;20100;-68
2021/06/29 06:53:07;;;;;;;3.13;1.70;;;;;;;;;;5110904;28;20506;-67
2021/06/29 06:55:33;;;;;;;2.53;2.13;;;;;;;;;;5107067;28;20087;-67
2021/06/29 06:57:59;;;;;;;6.55;1.60;;;;;;;;;;5111290;28;20402;-69
2021/06/29 07:00:26;;;;;;;3.03;2.55;;;;;;;;;;5108384;28;20417;-67
2021/06/29 07:02:55;;;;;;;4.45;1.50;;;;;;;;;;5109363;28;20055;-67
2021/06/29 07:05:22;;;;;;;2.40;1.83;;;;;;;;;;5112978;28;20046;-67
2021/06/29 07:07:48;;;;;;;4.50;2.55;;;;;;;;;;5112121;28;20035;-67
2021/06/29 07:10:14;;;;;;;2.55;2.28;;;;;;;;;;5113339;28;20535;-67
2021/06/29 07:12:40;;;;;;;2.95;2.50;;;;;;;;;;5112983;28;20121;-68
2021/06/29 07:15:07;;;;;;;4.97;2.80;;;;;;;;;;5105042;28;20282;-67
2021/06/29 07:17:34;;;;;;;4.35;2.83;;;;;;;;;;5110969;28;20047;-67
2021/06/29 07:20:00;;;;;;;3.70;3.03;;;;;;;;;;5107069;28;20876;-67
2021/06/29 07:22:26;;;;;;;2.53;2.20;;;;;;;;;;5100242;28;20047;-67
2021/06/29 07:24:52;;;;;;;2.67;2.20;;;;;;;;;;5110735;28;20131;-67
2021/06/29 07:27:18;;;;;;;3.95;1.83;;;;;;;;;;5111261;28;20055;-67
2021/06/29 07:29:44;;;;;;;2.15;1.95;;;;;;;;;;5111346;28;20162;-67
2021/06/29 07:32:11;;;;;;;2.15;1.95;;;;;;;;;;5107135;28;20055;-67
2021/06/29 07:34:37;;;;;;;3.13;1.60;;;;;;;;;;5113839;28;20135;-66
2021/06/29 07:37:03;;;;;;;3.50;1.75;;;;;;;;;;5109495;28;20059;-67
2021/06/29 07:39:29;;;;;;;2.70;2.50;;;;;;;;;;5111281;28;20043;-67
2021/06/29 07:41:55;;;;;;;2.88;2.00;;;;;;;;;;5107115;28;20206;-67
2021/06/29 07:44:21;;;;;;;2.92;2.42;;;;;;;;;;5104339;28;20051;-67
2021/06/29 07:46:47;;;;;;;2.90;1.50;;;;;;;;;;5109592;28;20043;-67
2021/06/29 07:49:13;;;;;;;1.85;1.63;;;;;;;;;;5107254;28;20054;-67
2021/06/29 07:51:40;;;;;;;5.50;1.85;;;;;;;;;;5111738;28;20493;-67
2021/06/29 07:54:06;;;;;;;2.70;2.38;;;;;;;;;;5107522;28;20047;-67
2021/06/29 07:56:36;;;;;;;2.30;2.10;;;;;;;;;;5111478;28;20533;-67
2021/06/29 07:59:02;;;;;;;2.70;2.15;;;;;;;;;;5113711;28;20545;-67
2021/06/29 08:01:28;;;;;;;1.38;1.27;;;;;;;;;;5109260;28;20050;-68
2021/06/29 08:03:55;;;;;;;2.33;1.83;;;;;;;;;;5112835;28;20130;-67
2021/06/29 08:06:21;;;;;;;3.53;1.50;;;;;;;;;;5112619;28;20039;-67
2021/06/29 08:08:47;;;;;;;2.92;1.83;;;;;;;;;;5107480;28;20063;-67
2021/06/29 08:11:13;;;;;;;4.47;2.00;;;;;;;;;;5113726;28;20095;-68
2021/06/29 08:13:39;;;;;;;4.57;1.95;;;;;;;;;;5109431;28;20084;-68
2021/06/29 08:16:06;;;;;;;4.82;2.30;;;;;;;;;;5108515;28;20188;-67
2021/06/29 08:18:33;;;;;;;4.20;1.58;;;;;;;;;;5108678;28;20066;-67
2021/06/29 08:21:00;;;;;;;2.80;1.30;;;;;;;;;;5107946;28;20066;-68
2021/06/29 08:23:27;;;;;;;2.67;1.48;;;;;;;;;;5104554;28;20114;-68
2021/06/29 08:25:53;;;;;;;3.00;2.00;;;;;;;;;;5107024;28;20105;-68
2021/06/29 08:28:19;;;;;;;3.05;1.88;;;;;;;;;;5110964;28;20049;-67
2021/06/29 08:30:46;;;;;;;2.08;1.85;;;;;;;;;;5114987;28;20615;-68
2021/06/29 08:33:12;;;;;;;4.93;1.88;;;;;;;;;;5106414;28;20050;-67
2021/06/29 08:35:44;;;;;;;2.60;1.70;;;;;;;;;;5111286;28;21259;-68
2021/06/29 08:38:10;;;;;;;1.60;1.50;;;;;;;;;;5118159;28;20062;-67
2021/06/29 08:40:37;;;;;;;3.85;2.13;;;;;;;;;;5118231;28;20116;-67
2021/06/29 08:43:07;;;;;;;3.53;2.17;;;;;;;;;;5108802;28;20051;-67
2021/06/29 08:45:33;;;;;;;7.65;2.95;;;;;;;;;;5113354;28;20074;-68
2021/06/29 08:48:03;;;;;;;5.32;2.10;;;;;;;;;;5112849;28;20660;-68
2021/06/29 08:50:30;;;;;;;2.33;1.73;;;;;;;;;;5108075;28;20050;-67
2021/06/29 08:53:00;;;;;;;6.93;2.53;;;;;;;;;;5111108;28;20052;-67
2021/06/29 08:55:28;;;;;;;2.55;1.55;;;;;;;;;;5106761;28;20051;-67
2021/06/29 08:57:54;;;;;;;2.15;1.83;;;;;;;;;;5108467;28;20051;-67
2021/06/29 09:00:20;;;;;;;5.55;2.13;;;;;;;;;;5112131;28;20047;-67
2021/06/29 09:02:46;;;;;;;1.85;1.70;;;;;;;;;;5105685;27;20232;-66
2021/06/29 09:05:19;;;;;;;2.47;2.20;;;;;;;;;;5104109;28;20580;-67
2021/06/29 09:07:46;;;;;;;2.10;1.98;;;;;;;;;;5115063;28;20051;-67
2021/06/29 09:10:12;;;;;;;2.00;1.77;;;;;;;;;;5106784;28;21241;-67
2021/06/29 09:12:42;;;;;;;1.92;1.27;;;;;;;;;;5110396;28;20043;-68
2021/06/29 09:15:27;;;;;;;7.60;2.33;;;;;;;;;;5112726;28;20054;-68
2021/06/29 09:17:54;;;;;;;3.03;1.55;;;;;;;;;;5108954;28;20036;-68
2021/06/29 09:20:31;;;;;;;4.47;1.58;;;;;;;;;;5112390;28;20047;-67
2021/06/29 09:22:58;;;;;;;2.08;1.60;;;;;;;;;;5114512;28;20112;-68
2021/06/29 09:25:29;;;;;;;1.63;1.33;;;;;;;;;;5108941;28;20090;-67
2021/06/29 09:27:55;;;;;;;2.85;2.65;;;;;;;;;;5108368;28;20094;-67
2021/06/29 09:30:27;;;;;;;5.95;1.75;;;;;;;;;;5111535;28;21065;-67
2021/06/29 09:33:15;;;;;;;5.93;1.98;;;;;;;;;;5107421;28;20118;-67
2021/06/29 09:35:41;;;;;;;2.08;1.52;;;;;;;;;;5113422;28;20051;-67
2021/06/29 09:38:09;;;;;;;6.03;1.73;;;;;;;;;;5110459;28;20051;-67
2021/06/29 09:40:35;;;;;;;5.03;1.77;;;;;;;;;;5109792;28;20158;-67
2021/06/29 09:43:15;;;;;;;6.05;1.55;;;;;;;;;;5103402;28;20055;-67
2021/06/29 09:45:44;;;;;;;2.00;1.77;;;;;;;;;;5094090;28;20048;-67
2021/06/29 09:48:11;;;;;;;1.48;1.23;;;;;;;;;;5085482;28;20043;-68
2021/06/29 09:50:45;;;;;;;3.85;2.03;;;;;;;;;;5084188;28;21300;-67
2021/06/29 09:53:15;;;;;;;4.45;1.75;;;;;;;;;;5087178;28;20048;-67
2021/06/29 09:55:46;;;;;;;3.50;2.22;;;;;;;;;;5091909;28;20043;-67
2021/06/29 09:58:13;;;;;;;8.18;1.75;;;;;;;;;;5102741;28;20065;-67
2021/06/29 10:01:05;;;;;;;4.75;1.77;;;;;;;;;;5104185;28;20055;-67
2021/06/29 10:03:33;;;;;;;4.45;1.77;;;;;;;;;;5086509;28;20056;-67
2021/06/29 10:06:00;;;;;;;1.90;1.48;;;;;;;;;;5087394;28;20063;-67
2021/06/29 10:08:30;;;;;;;4.22;2.28;;;;;;;;;;5086061;28;20052;-67
2021/06/29 10:11:03;;;;;;;4.63;1.92;;;;;;;;;;5093907;28;20071;-67
2021/06/29 10:13:32;;;;;;;4.63;2.00;;;;;;;;;;5097268;28;20074;-67
2021/06/29 10:15:59;;;;;;;1.73;1.48;;;;;;;;;;5085930;28;20059;-67
2021/06/29 10:18:26;;;;;;;3.85;1.95;;;;;;;;;;5083829;28;20565;-67
2021/06/29 10:20:55;;;;;;;3.08;2.28;;;;;;;;;;5087439;28;20039;-67
2021/06/29 10:23:22;;;;;;;2.40;1.95;;;;;;;;;;5085387;28;20067;-67
2021/06/29 10:25:48;;;;;;;2.83;1.77;;;;;;;;;;5087025;28;20086;-67
2021/06/29 10:28:15;;;;;;;3.22;2.05;;;;;;;;;;5096478;28;20116;-67
2021/06/29 10:30:41;;;;;;;4.72;1.50;;;;;;;;;;5089545;28;20059;-67
2021/06/29 10:33:12;;;;;;;2.33;1.55;;;;;;;;;;5080205;28;20515;-67
2021/06/29 10:35:38;;;;;;;3.42;1.80;;;;;;;;;;5083829;28;20052;-68
2021/06/29 10:38:05;;;;;;;3.00;2.35;;;;;;;;;;5091949;28;20105;-67
2021/06/29 10:40:34;;;;;;;2.72;2.00;;;;;;;;;;5088665;28;20131;-67
2021/06/29 10:43:11;;;;;;;4.90;1.77;;;;;;;;;;5085831;28;20171;-67
2021/06/29 10:45:38;;;;;;;7.95;1.52;;;;;;;;;;5070940;28;20058;-67
2021/06/29 10:48:24;;;;;;;2.05;1.38;;;;;;;;;;5100561;28;20087;-67
2021/06/29 10:50:51;;;;;;;2.90;1.27;;;;;;;;;;5076966;28;20125;-67
2021/06/29 10:53:36;;;;;;;2.25;1.20;;;;;;;;;;5086741;28;20032;-67
2021/06/29 10:56:04;;;;;;;1.92;1.50;;;;;;;;;;5090673;28;20147;-67
2021/06/29 10:58:34;;;;;;;2.97;2.00;;;;;;;;;;5105398;28;20595;-67
2021/06/29 11:01:21;;;;;;;2.05;1.85;;;;;;;;;;5097616;28;21386;-67
2021/06/29 11:03:47;;;;;;;1.58;1.13;;;;;;;;;;5073722;28;20048;-67
2021/06/29 11:06:13;;;;;;;2.72;1.50;;;;;;;;;;5084932;28;20589;-67
2021/06/29 11:08:46;;;;;;;1.58;1.48;;;;;;;;;;5083115;28;20052;-67
2021/06/29 11:11:12;;;;;;;2.08;1.48;;;;;;;;;;5088985;28;20131;-67
2021/06/29 11:13:41;;;;;;;4.45;1.75;;;;;;;;;;5085102;28;20062;-67
2021/06/29 11:16:08;;;;;;;1.88;1.52;;;;;;;;;;5084305;28;20486;-67
2021/06/29 11:18:34;;;;;;;2.35;1.50;;;;;;;;;;5090752;28;20059;-67
2021/06/29 11:21:02;;;;;;;2.65;1.40;;;;;;;;;;5091073;28;20112;-67
2021/06/29 11:23:32;;;;;;;1.90;0.80;;;;;;;;;;5087850;28;20391;-67
2021/06/29 11:26:14;;;;;;;1.10;0.98;;;;;;;;;;5091375;28;20517;-67
2021/06/29 11:28:45;;;;;;;2.70;1.65;;;;;;;;;;5088651;28;20056;-67
2021/06/29 11:31:17;;;;;;;0.95;0.95;;;;;;;;;;5089534;28;20047;-67
2021/06/29 11:33:45;;;;;;;5.80;1.58;;;;;;;;;;5089362;28;20139;-68
2021/06/29 11:36:14;;;;;;;1.35;1.25;;;;;;;;;;5085196;28;20066;-67
2021/06/29 11:38:42;;;;;;;1.67;1.23;;;;;;;;;;5088115;28;20052;-68
2021/06/29 11:41:27;;;;;;;4.65;1.40;;;;;;;;;;5088451;28;20054;-67
2021/06/29 11:43:57;;;;;;;1.35;1.25;;;;;;;;;;5088502;28;20039;-68
2021/06/29 11:46:42;;;;;;;2.05;1.80;;;;;;;;;;5091678;28;20074;-68
2021/06/29 11:49:08;;;;;;;1.15;1.05;;;;;;;;;;5087138;28;20050;-68
2021/06/29 11:51:51;;;;;;;1.70;1.35;;;;;;;;;;5091849;28;20162;-67
2021/06/29 11:54:27;;;;;;;1.55;1.25;;;;;;;;;;5090397;28;20063;-67
2021/06/29 11:56:54;;;;;;;1.90;1.30;;;;;;;;;;5086916;28;20452;-68
2021/06/29 11:59:31;;;;;;;1.05;0.88;;;;;;;;;;5085267;28;20509;-67
2021/06/29 12:02:04;;;;;;;1.50;1.40;;;;;;;;;;5093768;28;20067;-68
2021/06/29 12:04:30;;;;;;;;;;;;;;;;;;5083892;28;20044;-68
2021/06/29 12:07:08;;;;;;;1.70;1.60;;;;;;;;;;5085107;28;19930;-68
2021/06/29 12:09:35;;;;;;;1.02;0.95;;;;;;;;;;5089111;28;20063;-68
2021/06/29 12:12:17;;;;;;;2.28;1.52;;;;;;;;;;5085688;28;20046;-68
2021/06/29 12:14:43;;;;;;;1.92;1.25;;;;;;;;;;5089658;28;20048;-67
2021/06/29 12:17:09;;;;;;;2.70;1.42;;;;;;;;;;5089865;28;20086;-68
2021/06/29 12:19:35;;;;;;;1.38;1.10;;;;;;;;;;5095611;28;20083;-68
2021/06/29 12:22:01;;;;;;;1.35;1.23;;;;;;;;;;5088773;28;20055;-67
2021/06/29 12:24:28;;;;;;;1.27;1.00;;;;;;;;;;5093235;28;20065;-68
2021/06/29 12:26:54;;;;;;;4.13;1.58;;;;;;;;;;5088844;28;20043;-68
2021/06/29 12:29:38;;;;;;;2.47;1.55;;;;;;;;;;5096000;28;20044;-68
2021/06/29 12:32:23;;;;;;;2.55;1.48;;;;;;;;;;5097767;28;20515;-67
2021/06/29 12:34:50;;;;;;;2.20;1.55;;;;;;;;;;5111009;28;20066;-67
2021/06/29 12:37:16;;;;;;;4.32;1.60;;;;;;;;;;5096927;28;20044;-67
2021/06/29 12:39:42;;;;;;;1.67;1.30;;;;;;;;;;5086406;28;20043;-67
2021/06/29 12:42:09;;;;;;;2.53;1.50;;;;;;;;;;5092297;28;20056;-68
2021/06/29 12:44:36;;;;;;;2.65;1.20;;;;;;;;;;5084380;28;20510;-67
2021/06/29 12:47:03;;;;;;;2.05;1.02;;;;;;;;;;5083475;28;20059;-67
2021/06/29 12:49:32;;;;;;;1.80;1.70;;;;;;;;;;5080732;28;20928;-67
2021/06/29 12:52:09;;;;;;;2.95;1.65;;;;;;;;;;5077073;28;20143;-66
2021/06/29 12:54:36;;;;;;;2.03;1.77;;;;;;;;;;5077480;28;20068;-67
2021/06/29 12:57:04;;;;;;;2.38;1.95;;;;;;;;;;5086064;28;20174;-67
2021/06/29 12:59:31;;;;;;;1.90;1.42;;;;;;;;;;5084273;28;20079;-67
2021/06/29 13:02:02;;;;;;;1.77;1.67;;;;;;;;;;5079819;28;20055;-67
2021/06/29 13:04:34;;;;;;;3.72;1.35;;;;;;;;;;5083644;28;20056;-67
2021/06/29 13:07:04;;;;;;;2.22;2.00;;;;;;;;;;5080684;28;20051;-67
2021/06/29 13:09:35;;;;;;;1.45;1.33;;;;;;;;;;5079455;28;20060;-67
2021/06/29 13:12:03;;;;;;;1.85;1.45;;;;;;;;;;5084281;28;20060;-69
2021/06/29 13:14:30;;;;;;;3.40;2.13;;;;;;;;;;5077477;28;21111;-68
2021/06/29 13:17:04;;;;;;;2.45;1.33;;;;;;;;;;5079874;28;20514;-68
2021/06/29 13:19:30;;;;;;;3.88;1.52;;;;;;;;;;5076943;28;20051;-69
2021/06/29 13:22:01;;;;;;;1.80;1.52;;;;;;;;;;5090444;28;20052;-69
2021/06/29 13:24:49;;;;;;;2.33;1.60;;;;;;;;;;5102424;28;20724;-69
2021/06/29 13:27:26;;;;;;;3.15;2.00;;;;;;;;;;5092078;28;20136;-69
2021/06/29 13:29:59;;;;;;;6.60;1.77;;;;;;;;;;5091359;28;20119;-68
2021/06/29 13:32:25;;;;;;;;;;;;;;;;;;5086452;28;20048;-68
2021/06/29 13:35:01;;;;;;;2.97;2.45;;;;;;;;;;5088726;28;19977;-68
2021/06/29 13:37:27;;;;;;;7.22;2.33;;;;;;;;;;5086991;28;20052;-69
2021/06/29 13:39:54;;;;;;;1.52;1.35;;;;;;;;;;5099579;28;20076;-69
2021/06/29 13:42:20;;;;;;;2.75;1.60;;;;;;;;;;5093257;28;20062;-69
2021/06/29 13:44:56;;;;;;;5.47;2.17;;;;;;;;;;5096647;28;20554;-69
2021/06/29 13:47:23;;;;;;;1.48;1.38;;;;;;;;;;5091754;28;20140;-69
2021/06/29 13:50:03;;;;;;;3.92;1.45;;;;;;;;;;5082809;28;20063;-69
2021/06/29 13:52:30;;;;;;;2.08;1.48;;;;;;;;;;5082351;28;20052;-69
2021/06/29 13:55:13;;;;;;;2.45;1.45;;;;;;;;;;5089222;28;20051;-69
2021/06/29 13:57:42;;;;;;;2.50;1.70;;;;;;;;;;5096400;28;20060;-68
2021/06/29 14:00:21;;;;;;;1.70;1.58;;;;;;;;;;5100082;28;20059;-69
2021/06/29 14:02:59;;;;;;;1.75;1.55;;;;;;;;;;5101429;28;20125;-69
2021/06/29 14:05:33;;;;;;;2.72;2.15;;;;;;;;;;5105463;28;20110;-69
2021/06/29 14:08:19;;;;;;;2.58;2.20;;;;;;;;;;5101281;28;20122;-69
2021/06/29 14:11:06;;;;;;;2.75;1.83;;;;;;;;;;5096311;28;20549;-68
2021/06/29 14:13:40;;;;;;;2.50;1.60;;;;;;;;;;5098973;28;20067;-68
2021/06/29 14:16:08;;;;;;;3.15;1.92;;;;;;;;;;5093150;28;20151;-69
2021/06/29 14:18:34;;;;;;;5.65;2.13;;;;;;;;;;5095302;28;20105;-69
2021/06/29 14:21:02;;;;;;;2.45;1.88;;;;;;;;;;5095741;28;20039;-68
2021/06/29 14:23:29;;;;;;;3.42;2.10;;;;;;;;;;5096749;28;20043;-70
2021/06/29 14:25:55;;;;;;;1.85;1.33;;;;;;;;;;5087375;28;20125;-69
2021/06/29 14:28:22;;;;;;;4.85;2.03;;;;;;;;;;5100427;28;20073;-69
2021/06/29 14:30:48;;;;;;;4.40;2.13;;;;;;;;;;5092440;28;20067;-69
2021/06/29 14:33:14;;;;;;;2.20;1.48;;;;;;;;;;5095073;28;20079;-68
2021/06/29 14:35:40;;;;;;;5.40;1.90;;;;;;;;;;5107738;28;20062;-69
2021/06/29 14:38:10;;;;;;;4.72;2.25;;;;;;;;;;5109312;28;20600;-69
2021/06/29 14:40:36;;;;;;;2.95;2.15;;;;;;;;;;5107589;28;20051;-69
2021/06/29 14:43:02;;;;;;;2.35;1.85;;;;;;;;;;5097147;28;20043;-69
2021/06/29 14:45:28;;;;;;;5.07;2.35;;;;;;;;;;5104123;28;20040;-69
2021/06/29 14:47:54;;;;;;;4.43;2.15;;;;;;;;;;5106914;28;20130;-69
2021/06/29 14:50:21;;;;;;;3.35;2.10;;;;;;;;;;5101156;28;20047;-69
2021/06/29 14:52:48;;;;;;;3.88;2.33;;;;;;;;;;5103628;28;20082;-68
2021/06/29 14:55:14;;;;;;;12.82;3.72;;;;;;;;;;5098341;28;20044;-68